KPDX/PDX METAR and TAF weather

Enter ICAO airport designator
Station Type Date Time Source
KPDX METAR 2019/06/26 04:53 UTC NOAA

KPDX 260453Z 34006KT 10SM SCT049 BKN085 18/11 A2990 RMK AO2 SLP122 T01780111


Station Type Date Time Source
KPDX Decoded METAR 2019/06/26 04:53 UTC NOAA

PORTLAND INTERNATIONAL AIRPORT, OR, United States (KPDX) 45-35N 122-36W 7M
Jun 26, 2019 - 12:53 AM EDT / 2019.06.26 0453 UTC
Wind: from the NNW (340 degrees) at 7 MPH (6 KT):0
Visibility: 10 mile(s):0
Sky conditions: mostly cloudy
Temperature: 64.0 F (17.8 C)
Dew Point: 52.0 F (11.1 C)
Relative Humidity: 64%
Pressure (altimeter): 29.9 in. Hg (1012 hPa)
ob: KPDX 260453Z 34006KT 10SM SCT049 BKN085 18/11 A2990 RMK AO2 SLP122 T01780111
cycle: 5

Station Type Date Time Source
KPDX TAF 2019/06/26 06:22 UTC NOAA

TAF KPDX 260520Z 2606/2706 34005KT P6SM BKN060
FM261000 34003KT P6SM SCT070 SCT120
FM261900 29005KT P6SM VCSH BKN050 OVC080
FM270000 24005KT P6SM -SHRA OVC050
FM270400 30005KT P6SM BKN050

Example: see airport list